Fisher, Illinois
Current Conditions -  °F | °C
As of 4:50 AM on Thursday 23 Oct 2014 (Local Time) from KTIP Reporting Station
Clear Clear  
Wind Chill: 35°   Ceiling: Unl
Heat Index: 38°   Visibility: 10mi
Dew Point: 36°   Wind: 5mph
Humidity: 91%   Direction: 130°SE
Pressure: 30.23"   Gusts: NA
Location:  40.31°N, 88.35°W
Report Text: KTIP 230950Z AUTO 13004KT 10SM CLR 04/02 A3023 RMK AO2 T00350021
Loading
Personal Weather Stations






























Interactive Weather Map
Tropical Storm Tracking
New forecast layout! Learn more

10-Day Weather Forecast

Advertisements
Track Severe Weather on mobile